sensor_id;sensor_type;location;lat;lon;timestamp;pressure;altitude;pressure_sealevel;temperature;humidity
79067;BME280;68470;50.224;14.348;2023-04-03T00:01:40;100273.81;;;2.76;72.02
79067;BME280;68470;50.224;14.348;2023-04-03T00:04:06;100290.75;;;2.78;72.23
79067;BME280;68470;50.224;14.348;2023-04-03T00:06:33;100268.47;;;2.67;72.65
79067;BME280;68470;50.224;14.348;2023-04-03T00:09:00;100298.81;;;2.86;72.02
79067;BME280;68470;50.224;14.348;2023-04-03T00:11:26;100287.78;;;2.72;72.06
79067;BME280;68470;50.224;14.348;2023-04-03T00:13:54;100284.03;;;2.74;70.75
79067;BME280;68470;50.224;14.348;2023-04-03T00:16:20;100291.16;;;2.75;70.76
79067;BME280;68470;50.224;14.348;2023-04-03T00:18:46;100301.63;;;2.78;70.34
79067;BME280;68470;50.224;14.348;2023-04-03T00:21:13;100309.84;;;2.84;70.42
79067;BME280;68470;50.224;14.348;2023-04-03T00:23:42;100307.00;;;2.71;69.89
79067;BME280;68470;50.224;14.348;2023-04-03T00:26:09;100313.28;;;2.71;69.99
79067;BME280;68470;50.224;14.348;2023-04-03T00:28:34;100303.56;;;2.62;69.17
79067;BME280;68470;50.224;14.348;2023-04-03T00:31:00;100315.72;;;2.66;68.82
79067;BME280;68470;50.224;14.348;2023-04-03T00:33:26;100326.78;;;2.65;68.09
79067;BME280;68470;50.224;14.348;2023-04-03T00:35:52;100327.63;;;2.65;68.26
79067;BME280;68470;50.224;14.348;2023-04-03T00:38:18;100343.22;;;2.57;68.17
79067;BME280;68470;50.224;14.348;2023-04-03T00:40:46;100330.47;;;2.57;67.06
79067;BME280;68470;50.224;14.348;2023-04-03T00:43:18;100302.41;;;2.35;65.74
79067;BME280;68470;50.224;14.348;2023-04-03T00:45:53;100338.06;;;2.47;65.08
79067;BME280;68470;50.224;14.348;2023-04-03T00:50:52;100313.50;;;2.04;66.90
79067;BME280;68470;50.224;14.348;2023-04-03T00:53:22;100351.41;;;2.13;66.00
79067;BME280;68470;50.224;14.348;2023-04-03T00:55:51;100348.50;;;1.99;65.85
79067;BME280;68470;50.224;14.348;2023-04-03T00:58:20;100316.25;;;1.67;63.52
79067;BME280;68470;50.224;14.348;2023-04-03T01:00:52;100323.47;;;1.60;64.12
79067;BME280;68470;50.224;14.348;2023-04-03T01:03:23;100352.28;;;1.61;62.84
79067;BME280;68470;50.224;14.348;2023-04-03T01:05:50;100341.03;;;1.49;63.58
79067;BME280;68470;50.224;14.348;2023-04-03T01:08:15;100340.50;;;1.54;65.16
79067;BME280;68470;50.224;14.348;2023-04-03T01:10:42;100340.25;;;1.40;66.24
79067;BME280;68470;50.224;14.348;2023-04-03T01:13:29;100357.00;;;1.44;67.50
79067;BME280;68470;50.224;14.348;2023-04-03T01:15:56;100356.41;;;1.34;67.55
79067;BME280;68470;50.224;14.348;2023-04-03T01:18:25;100356.78;;;1.31;67.46
79067;BME280;68470;50.224;14.348;2023-04-03T01:23:38;100363.25;;;1.07;68.43
79067;BME280;68470;50.224;14.348;2023-04-03T01:26:09;100345.81;;;0.78;67.45
79067;BME280;68470;50.224;14.348;2023-04-03T01:28:38;100342.72;;;0.81;67.29
79067;BME280;68470;50.224;14.348;2023-04-03T01:31:20;100352.44;;;0.76;66.87
79067;BME280;68470;50.224;14.348;2023-04-03T01:33:48;100367.78;;;0.83;66.02
79067;BME280;68470;50.224;14.348;2023-04-03T01:36:18;100378.63;;;0.83;65.52
79067;BME280;68470;50.224;14.348;2023-04-03T01:38:44;100385.84;;;0.68;66.24
79067;BME280;68470;50.224;14.348;2023-04-03T01:41:10;100364.91;;;0.54;66.29
79067;BME280;68470;50.224;14.348;2023-04-03T01:43:36;100354.16;;;0.38;66.66
79067;BME280;68470;50.224;14.348;2023-04-03T01:46:03;100393.41;;;0.42;66.84
79067;BME280;68470;50.224;14.348;2023-04-03T01:48:28;100394.81;;;0.29;67.30
79067;BME280;68470;50.224;14.348;2023-04-03T01:50:54;100402.47;;;0.18;67.32
79067;BME280;68470;50.224;14.348;2023-04-03T01:53:20;100390.50;;;0.04;66.92
79067;BME280;68470;50.224;14.348;2023-04-03T01:55:46;100393.88;;;-0.02;67.42
79067;BME280;68470;50.224;14.348;2023-04-03T01:58:12;100386.75;;;0.05;65.80
79067;BME280;68470;50.224;14.348;2023-04-03T02:00:38;100397.94;;;-0.06;66.87
79067;BME280;68470;50.224;14.348;2023-04-03T02:03:04;100396.94;;;-0.05;65.44
79067;BME280;68470;50.224;14.348;2023-04-03T02:05:30;100388.97;;;-0.07;65.75
79067;BME280;68470;50.224;14.348;2023-04-03T02:07:56;100413.16;;;-0.05;65.38
79067;BME280;68470;50.224;14.348;2023-04-03T02:10:22;100408.63;;;-0.13;66.03
79067;BME280;68470;50.224;14.348;2023-04-03T02:12:48;100420.97;;;-0.18;66.01
79067;BME280;68470;50.224;14.348;2023-04-03T02:15:14;100403.41;;;-0.39;66.62
79067;BME280;68470;50.224;14.348;2023-04-03T02:17:44;100385.50;;;-0.64;67.75
79067;BME280;68470;50.224;14.348;2023-04-03T02:20:10;100428.09;;;-0.66;68.37
79067;BME280;68470;50.224;14.348;2023-04-03T02:22:36;100410.97;;;-0.91;69.02
79067;BME280;68470;50.224;14.348;2023-04-03T02:25:03;100418.41;;;-0.93;69.66
79067;BME280;68470;50.224;14.348;2023-04-03T02:27:28;100429.94;;;-0.83;69.48
79067;BME280;68470;50.224;14.348;2023-04-03T02:29:55;100407.00;;;-1.29;70.36
79067;BME280;68470;50.224;14.348;2023-04-03T02:32:21;100401.09;;;-1.33;70.74
79067;BME280;68470;50.224;14.348;2023-04-03T02:34:47;100413.38;;;-1.38;70.99
79067;BME280;68470;50.224;14.348;2023-04-03T02:37:13;100418.22;;;-1.58;72.29
79067;BME280;68470;50.224;14.348;2023-04-03T02:39:39;100400.13;;;-1.66;71.86
79067;BME280;68470;50.224;14.348;2023-04-03T02:42:05;100423.50;;;-1.40;71.91
79067;BME280;68470;50.224;14.348;2023-04-03T02:44:31;100435.16;;;-1.40;72.55
79067;BME280;68470;50.224;14.348;2023-04-03T02:46:57;100434.53;;;-1.68;72.61
79067;BME280;68470;50.224;14.348;2023-04-03T02:49:23;100430.00;;;-1.93;73.99
79067;BME280;68470;50.224;14.348;2023-04-03T02:51:49;100444.59;;;-2.04;74.87
79067;BME280;68470;50.224;14.348;2023-04-03T02:54:16;100421.69;;;-2.26;75.32
79067;BME280;68470;50.224;14.348;2023-04-03T02:56:43;100437.19;;;-2.02;74.72
79067;BME280;68470;50.224;14.348;2023-04-03T02:59:09;100445.00;;;-1.99;74.67
79067;BME280;68470;50.224;14.348;2023-04-03T03:01:35;100451.56;;;-2.01;74.54
79067;BME280;68470;50.224;14.348;2023-04-03T03:04:02;100458.94;;;-2.03;74.99
79067;BME280;68470;50.224;14.348;2023-04-03T03:06:27;100438.75;;;-1.99;74.80
79067;BME280;68470;50.224;14.348;2023-04-03T03:08:54;100455.09;;;-2.01;74.32
79067;BME280;68470;50.224;14.348;2023-04-03T03:11:20;100474.66;;;-1.99;74.90
79067;BME280;68470;50.224;14.348;2023-04-03T03:13:47;100455.19;;;-2.10;74.89
79067;BME280;68470;50.224;14.348;2023-04-03T03:16:12;100455.28;;;-2.20;74.58
79067;BME280;68470;50.224;14.348;2023-04-03T03:18:38;100463.44;;;-2.12;74.74
79067;BME280;68470;50.224;14.348;2023-04-03T03:21:04;100466.50;;;-2.07;74.62
79067;BME280;68470;50.224;14.348;2023-04-03T03:23:31;100455.06;;;-2.27;75.20
79067;BME280;68470;50.224;14.348;2023-04-03T03:26:00;100449.66;;;-2.27;75.17
79067;BME280;68470;50.224;14.348;2023-04-03T03:28:27;100453.28;;;-2.18;74.63
79067;BME280;68470;50.224;14.348;2023-04-03T03:30:53;100482.00;;;-2.09;74.77
79067;BME280;68470;50.224;14.348;2023-04-03T03:33:19;100458.44;;;-2.25;74.98
79067;BME280;68470;50.224;14.348;2023-04-03T03:35:45;100449.03;;;-2.21;73.88
79067;BME280;68470;50.224;14.348;2023-04-03T03:38:12;100478.53;;;-2.19;74.65
79067;BME280;68470;50.224;14.348;2023-04-03T03:40:38;100484.56;;;-2.25;75.53
79067;BME280;68470;50.224;14.348;2023-04-03T03:43:04;100486.09;;;-2.23;74.91
79067;BME280;68470;50.224;14.348;2023-04-03T03:45:30;100497.19;;;-2.08;74.42
79067;BME280;68470;50.224;14.348;2023-04-03T03:47:56;100461.16;;;-2.43;75.35
79067;BME280;68470;50.224;14.348;2023-04-03T03:50:22;100481.72;;;-2.24;74.76
79067;BME280;68470;50.224;14.348;2023-04-03T03:52:49;100496.69;;;-2.47;76.76
79067;BME280;68470;50.224;14.348;2023-04-03T03:55:15;100482.81;;;-2.52;76.43
79067;BME280;68470;50.224;14.348;2023-04-03T03:57:44;100464.78;;;-2.69;76.83
79067;BME280;68470;50.224;14.348;2023-04-03T04:00:10;100492.53;;;-2.59;77.01
79067;BME280;68470;50.224;14.348;2023-04-03T04:02:37;100487.13;;;-2.59;76.69
79067;BME280;68470;50.224;14.348;2023-04-03T04:05:03;100488.19;;;-2.52;76.23
79067;BME280;68470;50.224;14.348;2023-04-03T04:07:29;100485.44;;;-2.78;77.31
79067;BME280;68470;50.224;14.348;2023-04-03T04:09:55;100475.97;;;-2.82;77.49
79067;BME280;68470;50.224;14.348;2023-04-03T04:12:21;100479.09;;;-2.87;77.58
79067;BME280;68470;50.224;14.348;2023-04-03T04:14:47;100478.38;;;-2.61;76.74
79067;BME280;68470;50.224;14.348;2023-04-03T04:17:14;100466.34;;;-2.49;76.13
79067;BME280;68470;50.224;14.348;2023-04-03T04:19:39;100486.97;;;-2.40;76.09
79067;BME280;68470;50.224;14.348;2023-04-03T04:22:06;100490.38;;;-2.56;76.62
79067;BME280;68470;50.224;14.348;2023-04-03T04:24:32;100504.84;;;-2.39;76.03
79067;BME280;68470;50.224;14.348;2023-04-03T04:26:57;100506.00;;;-2.42;76.04
79067;BME280;68470;50.224;14.348;2023-04-03T04:29:23;100492.16;;;-2.64;76.95
79067;BME280;68470;50.224;14.348;2023-04-03T04:31:49;100505.84;;;-2.40;75.67
79067;BME280;68470;50.224;14.348;2023-04-03T04:34:15;100486.97;;;-2.40;75.10
79067;BME280;68470;50.224;14.348;2023-04-03T04:36:41;100517.09;;;-2.27;75.77
79067;BME280;68470;50.224;14.348;2023-04-03T04:39:08;100509.91;;;-2.36;76.26
79067;BME280;68470;50.224;14.348;2023-04-03T04:41:34;100517.16;;;-2.36;75.73
79067;BME280;68470;50.224;14.348;2023-04-03T04:44:00;100512.72;;;-2.46;76.29
79067;BME280;68470;50.224;14.348;2023-04-03T04:46:26;100524.34;;;-2.27;75.28
79067;BME280;68470;50.224;14.348;2023-04-03T04:48:52;100534.22;;;-2.18;74.93
79067;BME280;68470;50.224;14.348;2023-04-03T04:51:18;100521.81;;;-2.29;75.42
79067;BME280;68470;50.224;14.348;2023-04-03T04:53:44;100528.25;;;-2.57;76.59
79067;BME280;68470;50.224;14.348;2023-04-03T04:56:10;100552.38;;;-2.20;76.08
79067;BME280;68470;50.224;14.348;2023-04-03T04:58:36;100529.38;;;-2.50;76.46
79067;BME280;68470;50.224;14.348;2023-04-03T05:01:07;100546.66;;;-2.53;77.21
79067;BME280;68470;50.224;14.348;2023-04-03T05:03:33;100547.38;;;-2.51;77.31
79067;BME280;68470;50.224;14.348;2023-04-03T05:05:59;100541.69;;;-2.48;77.22
79067;BME280;68470;50.224;14.348;2023-04-03T05:08:25;100543.44;;;-2.21;76.06
79067;BME280;68470;50.224;14.348;2023-04-03T05:10:52;100542.88;;;-2.06;75.77
79067;BME280;68470;50.224;14.348;2023-04-03T05:13:19;100539.59;;;-1.48;73.50
79067;BME280;68470;50.224;14.348;2023-04-03T05:15:46;100544.09;;;-0.97;71.48
79067;BME280;68470;50.224;14.348;2023-04-03T05:18:12;100536.66;;;-0.28;68.76
79067;BME280;68470;50.224;14.348;2023-04-03T05:20:38;100556.63;;;0.11;67.21
79067;BME280;68470;50.224;14.348;2023-04-03T05:23:04;100524.97;;;0.12;65.53
79067;BME280;68470;50.224;14.348;2023-04-03T05:25:30;100543.38;;;0.57;64.95
79067;BME280;68470;50.224;14.348;2023-04-03T05:27:56;100540.50;;;0.58;64.10
79067;BME280;68470;50.224;14.348;2023-04-03T05:30:22;100546.41;;;1.09;63.77
79067;BME280;68470;50.224;14.348;2023-04-03T05:32:47;100553.88;;;1.07;63.30
79067;BME280;68470;50.224;14.348;2023-04-03T05:35:14;100520.81;;;1.12;62.66
79067;BME280;68470;50.224;14.348;2023-04-03T05:37:40;100550.66;;;1.43;62.20
79067;BME280;68470;50.224;14.348;2023-04-03T05:40:06;100568.91;;;1.57;61.34
79067;BME280;68470;50.224;14.348;2023-04-03T05:42:33;100548.88;;;1.58;61.65
79067;BME280;68470;50.224;14.348;2023-04-03T05:44:59;100546.91;;;1.52;61.73
79067;BME280;68470;50.224;14.348;2023-04-03T05:47:24;100570.50;;;1.97;60.77
79067;BME280;68470;50.224;14.348;2023-04-03T05:49:50;100561.94;;;2.46;58.99
79067;BME280;68470;50.224;14.348;2023-04-03T05:52:26;100570.22;;;2.53;58.58
79067;BME280;68470;50.224;14.348;2023-04-03T05:54:53;100534.47;;;2.41;58.07
79067;BME280;68470;50.224;14.348;2023-04-03T05:57:19;100568.91;;;2.26;58.76
79067;BME280;68470;50.224;14.348;2023-04-03T05:59:46;100565.44;;;1.94;60.12
79067;BME280;68470;50.224;14.348;2023-04-03T06:02:15;100573.25;;;2.35;58.41
79067;BME280;68470;50.224;14.348;2023-04-03T06:04:42;100569.09;;;2.01;59.11
79067;BME280;68470;50.224;14.348;2023-04-03T06:07:11;100558.06;;;1.80;58.67
79067;BME280;68470;50.224;14.348;2023-04-03T06:09:39;100581.91;;;1.93;58.94
79067;BME280;68470;50.224;14.348;2023-04-03T06:12:05;100588.00;;;1.95;59.30
79067;BME280;68470;50.224;14.348;2023-04-03T06:14:31;100558.94;;;2.03;58.29
79067;BME280;68470;50.224;14.348;2023-04-03T06:16:57;100594.16;;;1.89;58.65
79067;BME280;68470;50.224;14.348;2023-04-03T06:19:23;100589.84;;;2.02;57.42
79067;BME280;68470;50.224;14.348;2023-04-03T06:21:49;100568.88;;;2.11;57.78
79067;BME280;68470;50.224;14.348;2023-04-03T06:24:16;100597.91;;;2.71;57.07
79067;BME280;68470;50.224;14.348;2023-04-03T06:26:42;100600.72;;;2.92;56.24
79067;BME280;68470;50.224;14.348;2023-04-03T06:29:09;100610.66;;;2.70;55.36
79067;BME280;68470;50.224;14.348;2023-04-03T06:31:35;100588.16;;;2.77;55.77
79067;BME280;68470;50.224;14.348;2023-04-03T06:34:02;100586.47;;;2.76;55.30
79067;BME280;68470;50.224;14.348;2023-04-03T06:36:28;100616.91;;;2.56;56.85
79067;BME280;68470;50.224;14.348;2023-04-03T06:38:55;100588.06;;;3.29;54.79
79067;BME280;68470;50.224;14.348;2023-04-03T06:41:21;100614.81;;;3.40;54.14
79067;BME280;68470;50.224;14.348;2023-04-03T06:43:47;100602.25;;;3.24;53.73
79067;BME280;68470;50.224;14.348;2023-04-03T06:46:19;100580.66;;;3.74;52.77
79067;BME280;68470;50.224;14.348;2023-04-03T06:48:45;100613.69;;;3.05;53.96
79067;BME280;68470;50.224;14.348;2023-04-03T06:53:41;100622.47;;;4.02;52.64
79067;BME280;68470;50.224;14.348;2023-04-03T06:56:07;100593.41;;;3.88;51.66
79067;BME280;68470;50.224;14.348;2023-04-03T06:58:33;100601.47;;;3.45;52.81
79067;BME280;68470;50.224;14.348;2023-04-03T07:00:59;100617.72;;;3.53;53.23
79067;BME280;68470;50.224;14.348;2023-04-03T07:03:25;100608.06;;;3.87;52.18
79067;BME280;68470;50.224;14.348;2023-04-03T07:05:52;100626.81;;;3.46;54.16
79067;BME280;68470;50.224;14.348;2023-04-03T07:08:18;100576.47;;;2.38;54.53
79067;BME280;68470;50.224;14.348;2023-04-03T07:10:43;100622.75;;;2.45;56.30
79067;BME280;68470;50.224;14.348;2023-04-03T07:13:10;100582.03;;;3.48;53.92
79067;BME280;68470;50.224;14.348;2023-04-03T07:15:36;100621.69;;;3.87;54.90
79067;BME280;68470;50.224;14.348;2023-04-03T07:18:04;100589.50;;;3.76;52.94
79067;BME280;68470;50.224;14.348;2023-04-03T07:20:31;100605.81;;;3.40;52.57
79067;BME280;68470;50.224;14.348;2023-04-03T07:22:57;100615.19;;;3.08;54.51
79067;BME280;68470;50.224;14.348;2023-04-03T07:25:23;100644.75;;;3.55;54.40
79067;BME280;68470;50.224;14.348;2023-04-03T07:27:51;100599.22;;;3.85;53.28
79067;BME280;68470;50.224;14.348;2023-04-03T07:30:20;100587.63;;;4.19;51.67
79067;BME280;68470;50.224;14.348;2023-04-03T07:32:46;100611.50;;;4.17;52.07
79067;BME280;68470;50.224;14.348;2023-04-03T07:35:12;100630.78;;;4.86;50.27
79067;BME280;68470;50.224;14.348;2023-04-03T07:37:39;100639.47;;;5.24;49.34
79067;BME280;68470;50.224;14.348;2023-04-03T07:40:05;100588.22;;;3.57;52.34
79067;BME280;68470;50.224;14.348;2023-04-03T07:42:37;100616.13;;;3.29;54.03
79067;BME280;68470;50.224;14.348;2023-04-03T07:45:03;100600.44;;;4.68;50.37
79067;BME280;68470;50.224;14.348;2023-04-03T07:47:30;100607.31;;;5.20;48.08
79067;BME280;68470;50.224;14.348;2023-04-03T07:49:57;100631.97;;;4.70;49.57
79067;BME280;68470;50.224;14.348;2023-04-03T07:52:23;100629.81;;;4.44;50.54
79067;BME280;68470;50.224;14.348;2023-04-03T07:54:50;100645.28;;;4.59;49.63
79067;BME280;68470;50.224;14.348;2023-04-03T07:57:16;100628.97;;;4.44;48.98
79067;BME280;68470;50.224;14.348;2023-04-03T07:59:42;100623.16;;;4.75;49.07
79067;BME280;68470;50.224;14.348;2023-04-03T08:02:11;100620.78;;;5.62;46.41
79067;BME280;68470;50.224;14.348;2023-04-03T08:04:40;100623.72;;;6.15;45.70
79067;BME280;68470;50.224;14.348;2023-04-03T08:07:07;100640.31;;;5.25;46.06
79067;BME280;68470;50.224;14.348;2023-04-03T08:09:33;100617.94;;;3.73;49.90
79067;BME280;68470;50.224;14.348;2023-04-03T08:11:59;100617.19;;;4.65;48.51
79067;BME280;68470;50.224;14.348;2023-04-03T08:14:26;100627.84;;;5.09;48.10
79067;BME280;68470;50.224;14.348;2023-04-03T08:16:53;100629.47;;;4.75;49.06
79067;BME280;68470;50.224;14.348;2023-04-03T08:19:19;100635.28;;;5.22;49.12
79067;BME280;68470;50.224;14.348;2023-04-03T08:21:47;100604.25;;;5.36;47.45
79067;BME280;68470;50.224;14.348;2023-04-03T08:24:13;100622.06;;;4.97;47.52
79067;BME280;68470;50.224;14.348;2023-04-03T08:26:41;100631.72;;;5.28;45.36
79067;BME280;68470;50.224;14.348;2023-04-03T08:29:07;100641.72;;;4.37;48.20
79067;BME280;68470;50.224;14.348;2023-04-03T08:31:33;100623.06;;;4.40;47.59
79067;BME280;68470;50.224;14.348;2023-04-03T08:33:59;100646.63;;;4.97;46.37
79067;BME280;68470;50.224;14.348;2023-04-03T08:36:28;100633.09;;;5.45;46.29
79067;BME280;68470;50.224;14.348;2023-04-03T08:38:55;100610.81;;;5.07;46.76
79067;BME280;68470;50.224;14.348;2023-04-03T08:41:29;100612.28;;;4.81;45.98
79067;BME280;68470;50.224;14.348;2023-04-03T08:49:33;100646.84;;;6.06;44.86
79067;BME280;68470;50.224;14.348;2023-04-03T08:52:10;100603.69;;;5.47;45.55
79067;BME280;68470;50.224;14.348;2023-04-03T08:57:12;100628.69;;;5.44;44.96
79067;BME280;68470;50.224;14.348;2023-04-03T08:59:39;100651.41;;;4.89;46.37
79067;BME280;68470;50.224;14.348;2023-04-03T09:02:34;100664.47;;;5.97;44.41
79067;BME280;68470;50.224;14.348;2023-04-03T09:05:05;100654.19;;;5.64;41.71
79067;BME280;68470;50.224;14.348;2023-04-03T09:07:42;100647.06;;;6.11;41.36
79067;BME280;68470;50.224;14.348;2023-04-03T09:10:13;100619.78;;;6.51;41.54
79067;BME280;68470;50.224;14.348;2023-04-03T09:12:53;100657.19;;;4.79;45.12
79067;BME280;68470;50.224;14.348;2023-04-03T09:15:26;100612.63;;;6.23;41.14
79067;BME280;68470;50.224;14.348;2023-04-03T09:23:53;100623.34;;;7.24;39.48
79067;BME280;68470;50.224;14.348;2023-04-03T09:26:25;100615.94;;;7.31;39.31
79067;BME280;68470;50.224;14.348;2023-04-03T09:29:01;100638.25;;;7.48;40.36
79067;BME280;68470;50.224;14.348;2023-04-03T09:31:35;100618.56;;;3.90;48.07
79067;BME280;68470;50.224;14.348;2023-04-03T09:34:06;100641.44;;;3.45;49.89
79067;BME280;68470;50.224;14.348;2023-04-03T09:36:45;100653.69;;;2.82;50.61
79067;BME280;68470;50.224;14.348;2023-04-03T09:39:15;100647.75;;;2.18;49.79
79067;BME280;68470;50.224;14.348;2023-04-03T09:41:42;100624.53;;;4.00;45.41
79067;BME280;68470;50.224;14.348;2023-04-03T09:44:40;100615.56;;;4.21;45.99
79067;BME280;68470;50.224;14.348;2023-04-03T09:47:27;100626.13;;;4.31;45.14
79067;BME280;68470;50.224;14.348;2023-04-03T09:50:19;100642.09;;;3.47;46.42
79067;BME280;68470;50.224;14.348;2023-04-03T09:52:50;100631.59;;;5.08;41.93
79067;BME280;68470;50.224;14.348;2023-04-03T09:55:18;100646.59;;;7.73;34.56
79067;BME280;68470;50.224;14.348;2023-04-03T09:57:45;100628.25;;;5.88;40.08
79067;BME280;68470;50.224;14.348;2023-04-03T10:02:57;100651.38;;;3.67;44.31
79067;BME280;68470;50.224;14.348;2023-04-03T10:10:45;100632.59;;;4.30;41.20
79067;BME280;68470;50.224;14.348;2023-04-03T10:13:20;100633.09;;;5.10;40.96
79067;BME280;68470;50.224;14.348;2023-04-03T10:21:32;100623.84;;;3.77;45.33
79067;BME280;68470;50.224;14.348;2023-04-03T10:24:14;100652.13;;;4.12;44.21
79067;BME280;68470;50.224;14.348;2023-04-03T10:29:30;100631.44;;;5.92;40.58
79067;BME280;68470;50.224;14.348;2023-04-03T10:34:41;100623.19;;;3.89;43.48
79067;BME280;68470;50.224;14.348;2023-04-03T10:43:02;100651.81;;;4.21;45.18
79067;BME280;68470;50.224;14.348;2023-04-03T10:45:51;100653.34;;;3.88;45.08
79067;BME280;68470;50.224;14.348;2023-04-03T10:48:26;100627.59;;;6.67;38.06
79067;BME280;68470;50.224;14.348;2023-04-03T10:57:13;100603.44;;;10.64;30.89
79067;BME280;68470;50.224;14.348;2023-04-03T10:59:47;100629.38;;;11.45;30.08
79067;BME280;68470;50.224;14.348;2023-04-03T11:04:53;100627.34;;;6.29;34.89
79067;BME280;68470;50.224;14.348;2023-04-03T11:07:23;100583.16;;;6.25;36.04
79067;BME280;68470;50.224;14.348;2023-04-03T11:09:55;100610.94;;;7.08;36.40
79067;BME280;68470;50.224;14.348;2023-04-03T11:12:36;100631.88;;;8.05;34.11
79067;BME280;68470;50.224;14.348;2023-04-03T11:15:04;100606.72;;;5.65;39.00
79067;BME280;68470;50.224;14.348;2023-04-03T11:17:36;100618.53;;;4.26;39.99
79067;BME280;68470;50.224;14.348;2023-04-03T11:23:21;100619.81;;;6.77;37.76
79067;BME280;68470;50.224;14.348;2023-04-03T11:25:54;100605.34;;;5.89;37.36
79067;BME280;68470;50.224;14.348;2023-04-03T11:28:21;100591.38;;;4.89;40.79
79067;BME280;68470;50.224;14.348;2023-04-03T11:33:51;100606.84;;;4.32;42.42
79067;BME280;68470;50.224;14.348;2023-04-03T11:36:25;100583.97;;;5.10;39.47
79067;BME280;68470;50.224;14.348;2023-04-03T11:38:55;100583.06;;;4.47;41.99
79067;BME280;68470;50.224;14.348;2023-04-03T11:41:26;100600.22;;;4.41;41.32
79067;BME280;68470;50.224;14.348;2023-04-03T11:44:05;100586.06;;;5.08;40.08
79067;BME280;68470;50.224;14.348;2023-04-03T11:46:54;100597.63;;;7.90;31.18
79067;BME280;68470;50.224;14.348;2023-04-03T12:00:56;100604.28;;;4.52;41.80
79067;BME280;68470;50.224;14.348;2023-04-03T12:05:49;100615.53;;;4.42;41.01
79067;BME280;68470;50.224;14.348;2023-04-03T12:08:29;100591.94;;;4.07;42.53
79067;BME280;68470;50.224;14.348;2023-04-03T12:16:33;100589.66;;;5.57;39.00
79067;BME280;68470;50.224;14.348;2023-04-03T12:40:49;100547.88;;;4.52;42.97
79067;BME280;68470;50.224;14.348;2023-04-03T12:43:59;100564.31;;;4.59;41.45
79067;BME280;68470;50.224;14.348;2023-04-03T12:46:39;100548.41;;;3.92;44.96
79067;BME280;68470;50.224;14.348;2023-04-03T12:51:52;100538.47;;;4.06;42.95
79067;BME280;68470;50.224;14.348;2023-04-03T12:54:31;100562.22;;;8.51;34.32
79067;BME280;68470;50.224;14.348;2023-04-03T12:59:43;100548.41;;;6.99;36.89
79067;BME280;68470;50.224;14.348;2023-04-03T13:05:07;100548.50;;;4.27;41.68
79067;BME280;68470;50.224;14.348;2023-04-03T13:07:36;100579.22;;;4.63;41.24
79067;BME280;68470;50.224;14.348;2023-04-03T13:12:34;100546.06;;;7.67;35.20
79067;BME280;68470;50.224;14.348;2023-04-03T13:15:11;100549.06;;;6.81;35.83
79067;BME280;68470;50.224;14.348;2023-04-03T13:17:39;100570.31;;;5.10;39.73
79067;BME280;68470;50.224;14.348;2023-04-03T13:20:34;100568.22;;;5.12;39.97
79067;BME280;68470;50.224;14.348;2023-04-03T13:23:07;100524.41;;;4.86;39.71
79067;BME280;68470;50.224;14.348;2023-04-03T13:25:37;100537.56;;;4.76;41.14
79067;BME280;68470;50.224;14.348;2023-04-03T13:28:12;100565.06;;;4.53;42.02
79067;BME280;68470;50.224;14.348;2023-04-03T13:30:39;100541.28;;;4.68;39.32
79067;BME280;68470;50.224;14.348;2023-04-03T13:33:21;100552.06;;;4.76;39.36
79067;BME280;68470;50.224;14.348;2023-04-03T13:35:58;100566.88;;;4.67;41.23
79067;BME280;68470;50.224;14.348;2023-04-03T13:38:29;100542.94;;;3.92;41.84
79067;BME280;68470;50.224;14.348;2023-04-03T13:41:02;100549.97;;;3.65;43.23
79067;BME280;68470;50.224;14.348;2023-04-03T13:43:35;100540.47;;;3.76;43.35
79067;BME280;68470;50.224;14.348;2023-04-03T13:48:41;100529.53;;;3.90;43.24
79067;BME280;68470;50.224;14.348;2023-04-03T13:53:55;100517.78;;;4.11;41.39
79067;BME280;68470;50.224;14.348;2023-04-03T13:56:32;100553.44;;;4.16;41.45
79067;BME280;68470;50.224;14.348;2023-04-03T14:04:18;100536.44;;;4.64;41.09
79067;BME280;68470;50.224;14.348;2023-04-03T14:06:46;100547.47;;;4.28;41.95
79067;BME280;68470;50.224;14.348;2023-04-03T14:09:12;100542.09;;;3.91;42.38
79067;BME280;68470;50.224;14.348;2023-04-03T14:11:39;100526.34;;;3.87;41.88
79067;BME280;68470;50.224;14.348;2023-04-03T14:14:15;100544.84;;;3.91;42.78
79067;BME280;68470;50.224;14.348;2023-04-03T14:16:45;100517.25;;;3.80;43.19
79067;BME280;68470;50.224;14.348;2023-04-03T14:19:19;100514.06;;;4.19;42.20
79067;BME280;68470;50.224;14.348;2023-04-03T14:21:45;100518.09;;;4.23;40.91
79067;BME280;68470;50.224;14.348;2023-04-03T14:24:11;100525.34;;;4.37;41.19
79067;BME280;68470;50.224;14.348;2023-04-03T14:26:45;100519.78;;;4.24;40.15
79067;BME280;68470;50.224;14.348;2023-04-03T14:29:12;100530.75;;;4.09;41.40
79067;BME280;68470;50.224;14.348;2023-04-03T14:31:39;100515.69;;;4.69;40.04
79067;BME280;68470;50.224;14.348;2023-04-03T14:34:06;100558.28;;;4.42;41.86
79067;BME280;68470;50.224;14.348;2023-04-03T14:36:32;100534.38;;;4.16;40.84
79067;BME280;68470;50.224;14.348;2023-04-03T14:38:58;100534.66;;;4.21;41.01
79067;BME280;68470;50.224;14.348;2023-04-03T14:41:26;100528.06;;;4.37;41.53
79067;BME280;68470;50.224;14.348;2023-04-03T14:43:52;100518.72;;;4.25;40.83
79067;BME280;68470;50.224;14.348;2023-04-03T14:46:31;100531.25;;;4.19;41.20
79067;BME280;68470;50.224;14.348;2023-04-03T14:48:57;100547.28;;;4.08;42.11
79067;BME280;68470;50.224;14.348;2023-04-03T14:51:24;100513.63;;;3.73;41.75
79067;BME280;68470;50.224;14.348;2023-04-03T14:53:50;100515.75;;;3.77;42.00
79067;BME280;68470;50.224;14.348;2023-04-03T14:56:19;100518.09;;;4.02;40.43
79067;BME280;68470;50.224;14.348;2023-04-03T14:58:48;100523.53;;;3.59;42.00
79067;BME280;68470;50.224;14.348;2023-04-03T15:01:17;100544.47;;;3.58;43.17